Date,TemperatureHighF,TemperatureAvgF,TemperatureLowF,DewpointHighF,DewpointAvgF,DewpointLowF,HumidityHigh,HumidityAvg,HumidityLow,PressureMaxIn,PressureMinIn,WindSpeedMaxMPH,WindSpeedAvgMPH,GustSpeedMaxMPH,PrecipitationSumIn
2013-10-1,67,64,59,63,61,57,94,91,88,0.00,40.00,1,0,3,0.00
2013-10-2,84,69,57,69,60,56,96,75,41,0.00,40.00,5,2,11,0.00
2013-10-3,84,71,60,68,62,58,96,76,42,0.00,40.00,5,2,9,0.00
2013-10-4,87,71,59,67,62,58,97,76,39,0.00,40.00,4,1,9,0.00
2013-10-5,87,73,61,68,62,60,98,73,42,0.00,40.00,5,2,9,0.00
2013-10-6,85,72,60,69,63,59,97,76,44,0.00,40.00,7,3,15,0.00
2013-10-7,78,73,69,71,69,61,99,88,72,0.00,40.00,6,4,13,0.71
2013-10-8,68,63,59,58,54,51,84,74,65,0.00,40.00,8,6,17,0.13
2013-10-9,75,63,56,54,49,45,90,63,36,0.00,40.00,7,4,14,0.00
2013-10-10,79,65,51,60,53,49,95,69,39,0.00,40.00,7,3,13,0.00
2013-10-11,82,66,55,61,56,53,95,73,41,0.00,40.00,8,3,14,0.00
2013-10-12,82,67,57,64,57,-100,96,75,41,0.00,40.00,4,2,9,0.00
2013-10-13,77,69,64,64,63,61,93,81,64,0.00,40.00,5,3,10,0.00
2013-10-14,69,66,63,63,62,60,94,88,79,0.00,40.00,6,4,14,0.00
2013-10-15,73,64,61,61,59,57,98,84,61,0.00,40.00,7,3,11,0.00
2013-10-16,78,67,55,61,58,54,99,76,47,0.00,40.00,4,2,8,0.00
2013-10-17,75,67,59,69,63,58,97,87,67,0.00,40.00,9,2,15,0.03
2013-10-18,78,68,62,67,61,57,98,81,51,0.00,40.00,6,3,12,0.04
2013-10-19,66,61,58,57,53,-100,94,78,55,0.00,40.00,7,4,14,0.00
2013-10-20,74,59,48,55,49,42,97,74,32,0.00,40.00,5,3,10,0.00
2013-10-21,73,59,47,60,53,46,99,82,53,0.00,40.00,4,2,10,0.00
2013-10-22,67,62,59,62,59,56,98,89,78,0.00,40.00,5,2,8,0.00
2013-10-23,66,57,47,58,44,33,98,64,31,0.00,40.00,17,8,31,0.00
2013-10-24,66,51,35,46,36,33,93,62,31,0.00,40.00,8,3,14,0.00
2013-10-25,59,48,37,41,36,32,83,64,36,0.00,40.00,6,4,12,0.00
2013-10-26,62,44,30,41,32,-100,95,68,34,0.00,40.00,8,3,14,0.00
2013-10-27,72,57,43,55,44,35,84,64,44,0.00,40.00,10,4,16,0.00
2013-10-28,68,60,55,57,52,-100,96,80,59,0.00,40.00,5,2,8,0.00
2013-10-29,74,62,51,59,54,50,98,78,49,0.00,40.00,3,2,8,0.00
2013-10-30,79,64,53,59,54,52,97,74,42,0.00,40.00,7,2,13,0.00
2013-10-31,77,67,56,62,58,54,92,73,53,0.00,40.00,8,5,22,0.00